AZQ YBAF-YBAF
Flight info
| Callsign | AZQ |
|---|---|
| Flight time | N/A |
| Altitude | 1500 |
| Route | DCT |
| Aircraft | C172/L-VGD/C |
Departure
| Time | 2026-04-15 05:47 |
|---|---|
| Airport | Brisbane Archerfield Airport (YBAF) |
Arrival
| Time | N/A |
|---|---|
| Airport | Brisbane Archerfield Airport (YBAF) |
| Time | Latitude | Longitude | Altitude | Speed | Heading |
|---|---|---|---|---|---|
| 2026-04-15 05:35 | -27.57031 | 153.01248 | 51 ft | 0 kts | 190° |
| 2026-04-15 05:38 | -27.57054 | 153.01245 | 55 ft | 8 kts | 185° |
| 2026-04-15 05:39 | -27.57058 | 153.01244 | 55 ft | 0 kts | 185° |
| 2026-04-15 05:39 | -27.57063 | 153.01243 | 56 ft | 4 kts | 185° |
| 2026-04-15 05:39 | -27.57084 | 153.01233 | 55 ft | 0 kts | 227° |
| 2026-04-15 05:40 | -27.57041 | 153.01179 | 53 ft | 1 kts | 226° |
| 2026-04-15 05:40 | -27.57094 | 153.01066 | 56 ft | 20 kts | 242° |
| 2026-04-15 05:40 | -27.57162 | 153.00987 | 58 ft | 9 kts | 218° |
| 2026-04-15 05:40 | -27.57181 | 153.00971 | 61 ft | 0 kts | 214° |
| 2026-04-15 05:43 | -27.57031 | 153.01248 | 53 ft | 0 kts | 190° |
| 2026-04-15 05:45 | -27.57037 | 153.01247 | 53 ft | 0 kts | 187° |
| 2026-04-15 05:45 | -27.57054 | 153.01233 | 54 ft | 6 kts | 240° |
| 2026-04-15 05:46 | -27.57082 | 153.01185 | 56 ft | 8 kts | 211° |
| 2026-04-15 05:46 | -27.57149 | 153.01169 | 60 ft | 14 kts | 191° |
| 2026-04-15 05:46 | -27.57262 | 153.01150 | 68 ft | 19 kts | 188° |
| 2026-04-15 05:46 | -27.57411 | 153.01108 | 69 ft | 22 kts | 223° |
| 2026-04-15 05:47 | -27.57371 | 153.00918 | 65 ft | 44 kts | 295° |
| 2026-04-15 05:47 | -27.57243 | 153.00432 | 120 ft | 80 kts | 291° |
| 2026-04-15 05:47 | -27.57023 | 152.99788 | 334 ft | 98 kts | 289° |
| 2026-04-15 05:47 | -27.56908 | 152.99004 | 724 ft | 102 kts | 284° |
| 2026-04-15 05:48 | -27.56774 | 152.98249 | 1020 ft | 95 kts | 296° |
| 2026-04-15 05:48 | -27.56437 | 152.97668 | 1274 ft | 85 kts | 342° |
| 2026-04-15 05:48 | -27.55861 | 152.97777 | 1494 ft | 90 kts | 18° |
| 2026-04-15 05:48 | -27.55223 | 152.98016 | 1546 ft | 106 kts | 28° |
| 2026-04-15 05:49 | -27.54875 | 152.98794 | 1487 ft | 127 kts | 85° |
| 2026-04-15 05:49 | -27.55015 | 152.99810 | 1413 ft | 136 kts | 97° |
| 2026-04-15 05:49 | -27.55222 | 153.00790 | 1420 ft | 120 kts | 99° |
| 2026-04-15 05:49 | -27.55458 | 153.01646 | 1468 ft | 113 kts | 105° |
| 2026-04-15 05:50 | -27.55759 | 153.02465 | 1589 ft | 113 kts | 108° |
| 2026-04-15 05:50 | -27.56357 | 153.03090 | 1633 ft | 124 kts | 146° |
| 2026-04-15 05:50 | -27.57815 | 153.04232 | 1569 ft | 139 kts | 133° |
| 2026-04-15 05:51 | -27.58373 | 153.05090 | 1478 ft | 135 kts | 103° |
| 2026-04-15 05:51 | -27.58618 | 153.06112 | 1412 ft | 134 kts | 99° |
| 2026-04-15 05:51 | -27.58754 | 153.06804 | 1396 ft | 133 kts | 98° |
| 2026-04-15 05:51 | -27.58941 | 153.07813 | 1312 ft | 136 kts | 95° |
| 2026-04-15 05:52 | -27.59047 | 153.08864 | 1335 ft | 128 kts | 90° |
| 2026-04-15 05:52 | -27.59116 | 153.09734 | 1675 ft | 99 kts | 91° |
| 2026-04-15 05:52 | -27.59178 | 153.10440 | 1996 ft | 82 kts | 91° |
| 2026-04-15 05:52 | -27.59222 | 153.11070 | 2197 ft | 81 kts | 88° |
| 2026-04-15 05:53 | -27.59326 | 153.11808 | 2125 ft | 109 kts | 92° |
| 2026-04-15 05:53 | -27.59432 | 153.12701 | 2079 ft | 121 kts | 92° |
| 2026-04-15 05:53 | -27.59545 | 153.13652 | 2101 ft | 123 kts | 92° |
| 2026-04-15 05:53 | -27.59661 | 153.14635 | 2038 ft | 130 kts | 96° |
| 2026-04-15 05:54 | -27.59814 | 153.15638 | 1958 ft | 129 kts | 95° |
| 2026-04-15 05:54 | -27.59946 | 153.16617 | 1973 ft | 123 kts | 95° |
| 2026-04-15 05:54 | -27.60073 | 153.17556 | 1962 ft | 120 kts | 95° |
| 2026-04-15 05:54 | -27.60202 | 153.18490 | 1910 ft | 120 kts | 99° |
| 2026-04-15 05:55 | -27.60547 | 153.19297 | 1996 ft | 113 kts | 112° |
| 2026-04-15 05:55 | -27.60862 | 153.20135 | 2105 ft | 119 kts | 109° |
| 2026-04-15 05:55 | -27.61186 | 153.21043 | 2045 ft | 131 kts | 111° |
| 2026-04-15 05:55 | -27.61585 | 153.22002 | 1972 ft | 140 kts | 110° |
| 2026-04-15 05:56 | -27.61970 | 153.22978 | 2049 ft | 136 kts | 111° |
| 2026-04-15 05:56 | -27.62347 | 153.23966 | 2080 ft | 137 kts | 110° |
| 2026-04-15 05:56 | -27.62766 | 153.24995 | 1847 ft | 148 kts | 111° |
| 2026-04-15 05:56 | -27.63206 | 153.25996 | 1948 ft | 135 kts | 112° |
| 2026-04-15 05:57 | -27.63565 | 153.26812 | 2310 ft | 108 kts | 112° |
| 2026-04-15 05:57 | -27.63896 | 153.27588 | 2365 ft | 112 kts | 115° |
| 2026-04-15 05:57 | -27.64375 | 153.28200 | 2735 ft | 100 kts | 127° |
| 2026-04-15 05:57 | -27.64795 | 153.28790 | 3159 ft | 88 kts | 124° |
| 2026-04-15 05:58 | -27.65056 | 153.29285 | 3498 ft | 76 kts | 115° |
| 2026-04-15 05:58 | -27.65341 | 153.29962 | 3454 ft | 111 kts | 115° |
| 2026-04-15 05:58 | -27.65660 | 153.30812 | 3484 ft | 121 kts | 111° |
| 2026-04-15 05:58 | -27.66093 | 153.31614 | 3552 ft | 122 kts | 132° |
| 2026-04-15 05:59 | -27.66731 | 153.32244 | 3589 ft | 125 kts | 146° |
| 2026-04-15 05:59 | -27.67482 | 153.32708 | 3653 ft | 118 kts | 155° |
| 2026-04-15 05:59 | -27.68361 | 153.33190 | 3316 ft | 145 kts | 154° |
| 2026-04-15 05:59 | -27.69220 | 153.33689 | 3424 ft | 133 kts | 153° |
| 2026-04-15 06:00 | -27.70017 | 153.34187 | 3485 ft | 129 kts | 152° |
| 2026-04-15 06:00 | -27.70805 | 153.34693 | 3450 ft | 134 kts | 150° |
| 2026-04-15 06:00 | -27.71589 | 153.35277 | 3429 ft | 134 kts | 144° |
| 2026-04-15 06:00 | -27.72291 | 153.35944 | 3483 ft | 131 kts | 137° |
| 2026-04-15 06:01 | -27.72996 | 153.36578 | 3495 ft | 132 kts | 144° |
| 2026-04-15 06:01 | -27.73746 | 153.37202 | 3494 ft | 134 kts | 144° |
| 2026-04-15 06:01 | -27.74495 | 153.37829 | 3498 ft | 134 kts | 144° |
| 2026-04-15 06:01 | -27.75249 | 153.38461 | 3494 ft | 135 kts | 144° |
| 2026-04-15 06:02 | -27.76001 | 153.39096 | 3492 ft | 135 kts | 144° |
| 2026-04-15 06:02 | -27.76750 | 153.39728 | 3497 ft | 135 kts | 144° |
| 2026-04-15 06:02 | -27.77161 | 153.40074 | 3495 ft | 135 kts | 144° |
| 2026-04-15 06:02 | -27.77232 | 153.40134 | 3495 ft | 135 kts | 144° |
| 2026-04-15 06:03 | -27.77988 | 153.40777 | 3499 ft | 137 kts | 144° |
| 2026-04-15 06:03 | -27.78749 | 153.41421 | 3495 ft | 137 kts | 144° |
| 2026-04-15 06:03 | -27.79513 | 153.42058 | 3493 ft | 136 kts | 147° |
| 2026-04-15 06:03 | -27.80344 | 153.42572 | 3495 ft | 136 kts | 153° |
| 2026-04-15 06:04 | -27.81181 | 153.43077 | 3496 ft | 135 kts | 153° |
| 2026-04-15 06:04 | -27.82024 | 153.43561 | 3489 ft | 137 kts | 161° |
| 2026-04-15 06:04 | -27.82953 | 153.43703 | 3492 ft | 134 kts | 175° |
| 2026-04-15 06:04 | -27.83881 | 153.43832 | 3498 ft | 135 kts | 174° |
| 2026-04-15 06:05 | -27.84812 | 153.43963 | 3497 ft | 135 kts | 174° |
| 2026-04-15 06:05 | -27.85746 | 153.44099 | 3498 ft | 136 kts | 174° |
| 2026-04-15 06:05 | -27.86681 | 153.44230 | 3493 ft | 136 kts | 175° |
| 2026-04-15 06:05 | -27.87617 | 153.44366 | 3498 ft | 135 kts | 174° |
| 2026-04-15 06:06 | -27.88552 | 153.44504 | 3498 ft | 135 kts | 174° |
| 2026-04-15 06:06 | -27.89483 | 153.44643 | 3496 ft | 135 kts | 174° |
| 2026-04-15 06:06 | -27.90417 | 153.44781 | 3497 ft | 135 kts | 174° |
| 2026-04-15 06:06 | -27.91353 | 153.44918 | 3497 ft | 136 kts | 174° |
| 2026-04-15 06:07 | -27.92284 | 153.45061 | 3494 ft | 135 kts | 175° |
| 2026-04-15 06:07 | -27.93212 | 153.45209 | 3499 ft | 135 kts | 174° |
| 2026-04-15 06:07 | -27.94148 | 153.45358 | 3499 ft | 137 kts | 174° |
| 2026-04-15 06:07 | -27.95092 | 153.45507 | 3501 ft | 137 kts | 174° |
| 2026-04-15 06:08 | -27.96032 | 153.45651 | 3494 ft | 136 kts | 174° |
| 2026-04-15 06:08 | -27.96965 | 153.45795 | 3496 ft | 135 kts | 174° |
| 2026-04-15 06:08 | -27.97895 | 153.45936 | 3496 ft | 135 kts | 174° |
| 2026-04-15 06:08 | -27.98832 | 153.46083 | 3495 ft | 136 kts | 174° |
| 2026-04-15 06:09 | -27.99774 | 153.46235 | 3472 ft | 139 kts | 174° |
| 2026-04-15 06:09 | -28.00713 | 153.46384 | 3348 ft | 133 kts | 173° |
| 2026-04-15 06:09 | -28.01611 | 153.46517 | 3217 ft | 128 kts | 174° |
| 2026-04-15 06:09 | -28.02493 | 153.46644 | 3085 ft | 127 kts | 174° |
| 2026-04-15 06:10 | -28.03369 | 153.46770 | 2961 ft | 127 kts | 174° |
| 2026-04-15 06:10 | -28.04258 | 153.46895 | 2753 ft | 132 kts | 171° |
| 2026-04-15 06:10 | -28.05165 | 153.47162 | 2503 ft | 137 kts | 170° |
| 2026-04-15 06:10 | -28.06118 | 153.47242 | 2262 ft | 141 kts | 176° |
| 2026-04-15 06:11 | -28.07104 | 153.47284 | 2023 ft | 142 kts | 176° |
| 2026-04-15 06:11 | -28.08100 | 153.47320 | 1781 ft | 143 kts | 176° |
| 2026-04-15 06:11 | -28.09096 | 153.47347 | 1526 ft | 142 kts | 176° |
| 2026-04-15 06:11 | -28.10074 | 153.47385 | 1280 ft | 136 kts | 175° |
| 2026-04-15 06:12 | -28.10951 | 153.47423 | 1024 ft | 118 kts | 176° |
| 2026-04-15 06:12 | -28.11729 | 153.47595 | 848 ft | 123 kts | 154° |
| 2026-04-15 06:12 | -28.12552 | 153.48064 | 805 ft | 139 kts | 147° |
| 2026-04-15 06:12 | -28.13323 | 153.48566 | 749 ft | 110 kts | 147° |
| 2026-04-15 06:13 | -28.13924 | 153.48962 | 577 ft | 99 kts | 149° |
| 2026-04-15 06:13 | -28.14517 | 153.49337 | 467 ft | 91 kts | 143° |
| 2026-04-15 06:13 | -28.15050 | 153.49688 | 282 ft | 88 kts | 145° |
| 2026-04-15 06:13 | -28.15579 | 153.50025 | 96 ft | 88 kts | 143° |
| 2026-04-15 06:14 | -28.16071 | 153.50337 | 30 ft | 71 kts | 143° |
| 2026-04-15 06:14 | -28.16420 | 153.50566 | 21 ft | 50 kts | 147° |